Time;durP1;ratioP1;P1;durP2;ratioP2;P2;SDS_P1;SDS_P2;PMS_P1;PMS_P2;Temp;Humidity;BMP_temperature;BMP_pressure;BME280_temperature;BME280_humidity;BME280_pressure;Samples;Min_cycle;Max_cycle;Signal;HPM_P1;HPM_P2
2022/02/09 00:00:05;;;;;;;7.38;3.80;;;6.40;99.90;;;;;;5071632;28;20207;-71
2022/02/09 00:02:45;;;;;;;4.10;3.00;;;6.40;99.90;;;;;;5070730;28;20587;-71
2022/02/09 00:05:25;;;;;;;9.75;3.92;;;6.40;99.90;;;;;;5071812;28;20228;-72
2022/02/09 00:08:00;;;;;;;10.93;4.43;;;6.40;99.90;;;;;;5071229;28;20224;-72
2022/02/09 00:10:31;;;;;;;3.08;2.78;;;6.40;99.90;;;;;;5071595;28;20251;-71
2022/02/09 00:13:13;;;;;;;5.82;3.20;;;6.40;99.90;;;;;;5070924;28;20714;-72
2022/02/09 00:15:48;;;;;;;6.38;3.58;;;6.40;99.90;;;;;;5070594;28;20642;-71
2022/02/09 00:18:24;;;;;;;4.82;3.08;;;6.40;99.90;;;;;;5069725;28;20261;-71
2022/02/09 00:32:32;;;;;;;6.35;3.05;;;6.30;99.90;;;;;;5078519;28;20633;-71
2022/02/09 00:35:26;;;;;;;4.32;2.83;;;6.30;99.90;;;;;;5086119;28;20655;-72
2022/02/09 00:38:20;;;;;;;6.47;2.90;;;6.30;99.90;;;;;;5085634;28;20306;-72
2022/02/09 00:41:13;;;;;;;4.45;3.10;;;6.30;99.90;;;;;;5086151;28;20214;-72
2022/02/09 00:44:14;;;;;;;3.90;2.70;;;6.30;99.90;;;;;;5084651;28;20234;-72
2022/02/09 01:39:02;;;;;;;8.00;2.85;;;6.40;99.90;;;;;;5071615;28;20218;-72
2022/02/09 01:50:59;;;;;;;3.70;2.80;;;6.30;99.90;;;;;;5069801;28;20222;-72
2022/02/09 01:55:50;;;;;;;5.00;3.03;;;6.40;99.90;;;;;;5059019;28;20705;-71
2022/02/09 01:58:17;;;;;;;7.80;3.15;;;6.40;99.90;;;;;;5070299;28;20210;-72
2022/02/09 02:00:44;;;;;;;4.63;2.67;;;6.40;99.90;;;;;;5070391;28;20228;-71
2022/02/09 02:03:11;;;;;;;3.70;2.85;;;6.40;99.90;;;;;;5070060;28;20698;-72
2022/02/09 02:05:39;;;;;;;6.28;2.67;;;6.40;99.90;;;;;;5070652;28;20980;-72
2022/02/09 02:08:09;;;;;;;4.78;2.83;;;6.40;99.90;;;;;;5077177;28;20212;-72
2022/02/09 02:10:45;;;;;;;4.53;2.50;;;6.40;99.90;;;;;;5090040;28;20207;-72
2022/02/09 02:13:24;;;;;;;4.63;3.05;;;6.40;99.90;;;;;;5089401;28;20210;-72
2022/02/09 02:18:36;;;;;;;4.35;2.78;;;6.40;99.90;;;;;;5089870;28;20261;-72
2022/02/09 02:21:21;;;;;;;9.18;3.30;;;6.40;99.90;;;;;;5090194;28;20196;-72
2022/02/09 02:26:43;;;;;;;3.60;2.95;;;6.50;99.90;;;;;;5088963;28;20242;-72
2022/02/09 02:29:27;;;;;;;6.28;2.53;;;6.50;99.90;;;;;;5089389;28;20284;-71
2022/02/09 02:32:21;;;;;;;4.22;2.42;;;6.50;99.90;;;;;;5089147;28;20203;-72
2022/02/09 02:41:27;;;;;;;4.90;2.97;;;6.40;99.90;;;;;;5043575;28;20211;-72
2022/02/09 02:57:25;;;;;;;3.97;2.30;;;6.40;99.90;;;;;;5050920;28;20255;-73
2022/02/09 03:08:33;;;;;;;2.17;1.77;;;6.40;99.90;;;;;;5051013;28;20208;-74
2022/02/09 03:11:13;;;;;;;1.73;1.63;;;6.40;99.90;;;;;;5051212;28;20201;-73
2022/02/09 03:13:51;;;;;;;3.65;2.88;;;6.50;99.90;;;;;;5050683;28;20227;-74
2022/02/09 03:16:27;;;;;;;5.75;2.40;;;6.60;99.90;;;;;;5051402;28;20606;-74
2022/02/09 03:19:15;;;;;;;3.30;2.00;;;6.50;99.90;;;;;;5051031;28;20228;-74
2022/02/09 03:21:48;;;;;;;1.90;1.80;;;6.50;99.90;;;;;;5051343;28;20202;-74
2022/02/09 03:24:19;;;;;;;3.25;2.30;;;6.60;99.90;;;;;;5050533;28;20697;-74
2022/02/09 03:27:17;;;;;;;3.60;2.35;;;6.50;99.90;;;;;;5050779;28;20689;-73
2022/02/09 03:43:58;;;;;;;3.88;2.50;;;6.50;99.90;;;;;;5050219;28;20251;-73
2022/02/09 03:46:45;;;;;;;2.92;2.25;;;6.40;99.90;;;;;;5050644;28;20316;-73
2022/02/09 03:49:29;;;;;;;4.90;2.33;;;6.40;99.90;;;;;;5050376;28;20201;-74
2022/02/09 03:52:04;;;;;;;3.55;2.10;;;6.40;99.90;;;;;;5050544;28;20258;-73
2022/02/09 03:54:36;;;;;;;3.00;1.80;;;6.40;99.90;;;;;;5050219;28;20731;-76
2022/02/09 03:57:10;;;;;;;4.93;4.35;;;6.40;99.90;;;;;;5050531;28;20237;-73
2022/02/09 03:59:36;;;;;;;2.50;2.28;;;6.40;99.90;;;;;;5050252;28;20278;-74
2022/02/09 04:02:06;;;;;;;4.75;3.00;;;6.30;99.90;;;;;;5050046;28;20208;-72
2022/02/09 04:04:33;;;;;;;3.67;2.60;;;6.20;99.90;;;;;;5050527;28;20201;-73
2022/02/09 04:07:01;;;;;;;3.88;2.33;;;6.20;99.90;;;;;;5050005;28;20227;-74
2022/02/09 04:09:31;;;;;;;5.15;2.28;;;6.20;99.90;;;;;;5050891;28;20263;-73
2022/02/09 04:12:05;;;;;;;2.33;1.90;;;6.20;99.90;;;;;;5050114;28;20224;-74
2022/02/09 04:14:41;;;;;;;2.40;2.10;;;6.10;99.90;;;;;;5050428;28;20207;-73
2022/02/09 04:17:19;;;;;;;5.53;2.42;;;6.10;99.90;;;;;;5049832;28;20224;-74
2022/02/09 04:20:06;;;;;;;3.13;1.85;;;6.10;99.90;;;;;;5050328;28;20676;-73
2022/02/09 04:36:27;;;;;;;2.40;2.20;;;5.90;99.90;;;;;;5049085;28;20220;-75
2022/02/09 04:38:59;;;;;;;4.68;2.30;;;6.00;99.90;;;;;;5047017;28;20609;-74
2022/02/09 04:52:30;;;;;;;3.95;2.60;;;5.90;99.90;;;;;;5046075;28;20336;-74
2022/02/09 04:55:08;;;;;;;4.85;3.00;;;5.80;99.90;;;;;;5046238;28;20201;-74
2022/02/09 04:57:41;;;;;;;3.25;2.50;;;5.80;99.90;;;;;;5048191;28;20193;-74
2022/02/09 05:00:21;;;;;;;4.25;2.80;;;5.80;99.90;;;;;;5049150;28;20197;-74
2022/02/09 05:25:14;;;;;;;6.03;2.70;;;5.90;99.90;;;;;;5024719;28;20200;-74
2022/02/09 05:27:51;;;;;;;6.28;3.30;;;5.90;99.90;;;;;;5052729;28;20670;-74
2022/02/09 05:30:18;;;;;;;4.95;2.67;;;5.90;99.90;;;;;;5053452;28;20259;-74
2022/02/09 05:32:47;;;;;;;3.33;2.70;;;6.00;99.90;;;;;;5052567;28;20204;-74
2022/02/09 05:35:14;;;;;;;3.00;2.33;;;6.00;99.90;;;;;;5052950;28;20672;-74
2022/02/09 05:37:43;;;;;;;5.18;2.90;;;6.00;99.90;;;;;;5052954;28;20201;-74
2022/02/09 05:40:10;;;;;;;4.90;3.30;;;6.00;99.90;;;;;;5052924;28;20209;-74
2022/02/09 05:42:37;;;;;;;7.05;3.40;;;6.00;99.90;;;;;;5052724;28;20205;-73
2022/02/09 05:45:08;;;;;;;4.60;3.08;;;5.90;99.90;;;;;;5052541;28;20201;-74
2022/02/09 05:48:09;;;;;;;4.53;2.95;;;5.90;99.90;;;;;;5052940;28;20692;-74
2022/02/09 05:50:37;;;;;;;3.95;2.90;;;5.90;99.90;;;;;;5052610;28;20292;-73
2022/02/09 05:53:14;;;;;;;4.53;3.42;;;5.90;99.90;;;;;;5051983;28;20204;-73
2022/02/09 05:55:50;;;;;;;7.80;3.00;;;5.90;99.90;;;;;;5052631;28;20320;-73
2022/02/09 05:58:36;;;;;;;7.25;3.72;;;5.90;99.90;;;;;;5052507;28;20205;-73
2022/02/09 06:01:05;;;;;;;4.80;3.08;;;5.80;99.90;;;;;;5052372;28;20228;-75
2022/02/09 06:03:32;;;;;;;4.65;2.72;;;5.80;99.90;;;;;;5052139;28;20212;-74
2022/02/09 06:05:59;;;;;;;4.50;2.90;;;5.80;99.90;;;;;;5052258;28;20225;-74
2022/02/09 06:08:29;;;;;;;5.25;3.40;;;5.80;99.90;;;;;;5052561;28;20201;-75
2022/02/09 06:11:09;;;;;;;6.35;2.85;;;5.70;99.90;;;;;;5052133;28;20288;-74
2022/02/09 06:13:55;;;;;;;7.30;3.72;;;5.70;99.90;;;;;;5052109;28;20208;-75
2022/02/09 06:21:50;;;;;;;7.35;4.13;;;5.60;99.90;;;;;;5052085;28;20247;-75
2022/02/09 06:24:18;;;;;;;7.70;3.17;;;5.60;99.90;;;;;;5051599;28;20212;-75
2022/02/09 06:26:45;;;;;;;6.63;3.03;;;5.60;99.90;;;;;;5051870;28;20229;-75
2022/02/09 06:29:12;;;;;;;7.22;3.05;;;5.60;99.90;;;;;;5051610;28;20209;-75
2022/02/09 06:31:39;;;;;;;5.28;3.55;;;5.60;99.90;;;;;;5052213;28;20292;-75
2022/02/09 06:34:08;;;;;;;6.05;3.45;;;5.50;99.90;;;;;;5050952;28;20220;-75
2022/02/09 06:36:39;;;;;;;5.45;3.13;;;5.50;99.90;;;;;;5051685;28;20696;-75
2022/02/09 06:39:07;;;;;;;3.95;2.80;;;5.50;99.90;;;;;;5051397;28;20568;-74
2022/02/09 06:41:36;;;;;;;8.10;3.00;;;5.50;99.90;;;;;;5051878;28;20262;-75
2022/02/09 06:44:03;;;;;;;10.35;3.08;;;5.40;99.90;;;;;;5050943;28;20209;-76
2022/02/09 06:46:33;;;;;;;3.70;2.88;;;5.40;99.90;;;;;;5051220;28;20231;-76
2022/02/09 06:49:04;;;;;;;5.75;3.05;;;5.40;99.90;;;;;;5051516;28;20205;-76
2022/02/09 06:51:34;;;;;;;4.40;3.00;;;5.30;99.90;;;;;;5051353;28;20551;-75
2022/02/09 06:54:04;;;;;;;6.47;3.35;;;5.20;99.90;;;;;;5050925;28;20208;-75
2022/02/09 06:56:44;;;;;;;4.00;3.10;;;5.10;99.90;;;;;;5051219;28;20244;-75
2022/02/09 06:59:15;;;;;;;7.07;3.03;;;5.00;99.90;;;;;;5051103;28;20204;-75
2022/02/09 07:01:42;;;;;;;7.50;3.35;;;4.90;99.90;;;;;;5051352;28;20201;-75
2022/02/09 07:04:08;;;;;;;6.47;3.08;;;4.90;99.90;;;;;;5050837;28;20296;-74
2022/02/09 07:06:35;;;;;;;6.75;3.50;;;4.90;99.90;;;;;;5051094;28;20248;-75
2022/02/09 07:09:02;;;;;;;3.63;3.10;;;4.80;99.90;;;;;;5050922;28;20208;-75
2022/02/09 07:11:29;;;;;;;6.68;3.55;;;4.80;99.90;;;;;;5051303;28;20205;-73
2022/02/09 07:13:55;;;;;;;4.40;3.20;;;4.80;99.90;;;;;;5050242;28;20715;-74
2022/02/09 07:16:24;;;;;;;5.75;3.00;;;4.70;99.90;;;;;;5051113;28;20221;-75
2022/02/09 07:18:51;;;;;;;6.15;3.50;;;4.70;99.90;;;;;;5050815;28;20859;-75
2022/02/09 07:21:22;;;;;;;6.82;3.70;;;4.60;99.90;;;;;;5051156;28;20209;-75
2022/02/09 07:23:51;;;;;;;5.72;2.95;;;4.60;99.90;;;;;;5050351;28;20208;-75
2022/02/09 07:26:25;;;;;;;4.30;2.83;;;4.60;99.90;;;;;;5050826;28;20229;-75
2022/02/09 07:28:53;;;;;;;8.18;3.65;;;4.50;99.90;;;;;;5050901;28;20461;-74
2022/02/09 07:31:20;;;;;;;4.22;3.08;;;4.50;99.90;;;;;;5050834;28;20201;-75
2022/02/09 07:33:49;;;;;;;4.10;3.08;;;4.50;99.90;;;;;;5049944;28;20205;-74
2022/02/09 07:36:17;;;;;;;3.58;2.80;;;4.60;99.90;;;;;;5050513;28;20217;-75
2022/02/09 07:38:44;;;;;;;10.77;3.42;;;4.60;99.90;;;;;;5050809;28;20201;-75
2022/02/09 07:41:11;;;;;;;3.80;3.00;;;4.60;99.90;;;;;;5050322;28;20254;-75
2022/02/09 07:43:44;;;;;;;7.65;3.75;;;4.70;99.90;;;;;;5050058;28;20201;-75
2022/02/09 07:49:07;;;;;;;6.85;4.10;;;4.70;99.90;;;;;;5034321;28;20342;-75
2022/02/09 07:51:54;;;;;;;4.75;3.55;;;4.90;99.90;;;;;;5050608;28;20216;-75
2022/02/09 07:54:24;;;;;;;6.93;3.55;;;5.60;99.90;;;;;;5050079;28;20208;-75
2022/02/09 07:56:51;;;;;;;11.85;4.68;;;6.90;99.90;;;;;;5050086;28;20255;-75
2022/02/09 07:59:17;;;;;;;5.55;3.58;;;8.20;99.90;;;;;;5050215;28;20209;-75
2022/02/09 08:01:45;;;;;;;4.75;3.47;;;9.50;99.90;;;;;;5050381;28;20296;-73
2022/02/09 08:04:14;;;;;;;5.20;3.53;;;10.80;99.90;;;;;;5049384;28;20351;-75
2022/02/09 08:06:42;;;;;;;4.63;3.20;;;11.90;99.90;;;;;;5050439;28;20680;-74
2022/02/09 08:09:16;;;;;;;3.78;3.05;;;12.70;99.90;;;;;;5049942;28;20212;-75
2022/02/09 08:11:51;;;;;;;5.72;3.70;;;13.50;99.30;;;;;;5050389;28;20549;-74
2022/02/09 08:28:34;;;;;;;4.50;3.30;;;16.50;95.50;;;;;;5050227;28;20456;-75
2022/02/09 08:31:23;;;;;;;4.30;2.90;;;17.70;94.20;;;;;;5048902;28;20462;-75
2022/02/09 08:33:50;;;;;;;4.80;3.20;;;18.30;93.50;;;;;;5049215;28;20443;-75
2022/02/09 08:36:18;;;;;;;6.50;3.30;;;19.20;92.70;;;;;;5049170;28;20983;-75
2022/02/09 08:38:45;;;;;;;6.67;2.97;;;18.90;91.80;;;;;;5049778;28;20894;-76
2022/02/09 08:41:12;;;;;;;3.33;2.57;;;18.80;91.90;;;;;;5049612;28;20806;-76
2022/02/09 08:43:40;;;;;;;4.60;2.47;;;17.90;92.20;;;;;;5049514;28;20554;-75
2022/02/09 08:46:07;;;;;;;5.10;2.80;;;18.60;91.90;;;;;;5049550;28;20570;-76
2022/02/09 08:48:34;;;;;;;3.70;2.73;;;19.50;91.50;;;;;;5088691;22;20516;-89
2022/02/09 08:51:17;;;;;;;3.53;2.67;;;19.70;90.90;;;;;;5066475;28;20509;-89
2022/02/09 08:53:45;;;;;;;3.03;2.60;;;20.40;90.00;;;;;;5059578;28;20459;-89
2022/02/09 08:56:12;;;;;;;5.83;3.50;;;19.90;89.90;;;;;;5059249;28;20458;-89
2022/02/09 08:58:41;;;;;;;4.63;2.90;;;19.70;90.60;;;;;;5058159;28;20962;-89
2022/02/09 09:01:10;;;;;;;3.83;2.90;;;20.50;90.10;;;;;;5057674;28;20451;-89
2022/02/09 09:03:46;;;;;;;3.53;2.50;;;21.00;88.00;;;;;;5058274;28;20455;-90
2022/02/09 09:06:18;;;;;;;3.73;2.57;;;21.10;88.00;;;;;;5059976;28;20491;-89
2022/02/09 09:09:00;;;;;;;3.40;2.93;;;21.90;86.20;;;;;;5060049;28;20574;-89
2022/02/09 10:02:16;;;;;;;4.93;3.20;;;23.70;78.00;;;;;;5061265;28;20446;-90
2022/02/09 10:33:04;;;;;;;3.40;2.50;;;25.30;75.50;;;;;;5077466;28;20838;-91
2022/02/09 10:35:38;;;;;;;2.83;2.23;;;25.30;76.10;;;;;;5078695;28;20557;-90
2022/02/09 10:38:20;;;;;;;3.70;2.77;;;25.90;75.60;;;;;;5085997;28;20482;-88
2022/02/09 10:40:51;;;;;;;3.87;2.60;;;25.20;75.30;;;;;;5079938;28;20462;-88
2022/02/09 10:43:30;;;;;;;3.10;2.20;;;25.30;74.20;;;;;;5078328;28;20634;-89
2022/02/09 10:46:13;;;;;;;3.20;2.10;;;24.20;75.70;;;;;;5078173;28;20501;-91
2022/02/09 10:48:47;;;;;;;3.00;1.90;;;23.90;77.00;;;;;;5073717;28;20856;-89
2022/02/09 10:51:27;;;;;;;5.30;2.63;;;24.10;75.70;;;;;;5078260;28;20458;-91
2022/02/09 10:54:06;;;;;;;5.10;3.03;;;23.80;78.00;;;;;;5088490;28;20830;-90
2022/02/09 10:56:34;;;;;;;2.83;2.27;;;24.00;75.80;;;;;;5076410;28;20998;-91
2022/02/09 10:59:02;;;;;;;3.73;1.93;;;23.30;77.10;;;;;;5064690;28;20486;-92
2022/02/09 11:01:29;;;;;;;2.83;1.97;;;23.50;80.00;;;;;;5058464;28;20470;-91
2022/02/09 11:03:59;;;;;;;2.80;2.03;;;22.60;78.00;;;;;;5057761;28;20455;-92
2022/02/09 11:06:29;;;;;;;2.30;1.87;;;21.90;79.30;;;;;;5056791;28;21087;-91
2022/02/09 11:08:56;;;;;;;2.30;1.93;;;22.40;79.40;;;;;;5058724;28;20479;-90
2022/02/09 11:11:23;;;;;;;2.20;1.97;;;22.30;79.70;;;;;;5057141;28;20468;-91
2022/02/09 11:13:50;;;;;;;3.10;2.03;;;21.30;81.40;;;;;;5057243;28;20459;-90
2022/02/09 11:16:18;;;;;;;1.70;1.30;;;22.40;82.00;;;;;;5056619;28;20455;-90
2022/02/09 11:18:48;;;;;;;2.63;1.80;;;23.50;78.90;;;;;;5056419;28;20475;-90
2022/02/09 11:21:16;;;;;;;5.87;1.77;;;23.70;78.60;;;;;;5059146;28;20582;-90
2022/02/09 11:23:45;;;;;;;2.50;1.60;;;24.10;78.90;;;;;;5056735;28;20460;-91
2022/02/09 11:26:36;;;;;;;2.40;1.87;;;23.80;77.90;;;;;;5056422;28;20455;-91
2022/02/09 11:29:25;;;;;;;2.90;1.70;;;23.90;78.40;;;;;;5056518;28;20900;-92
2022/02/09 11:32:16;;;;;;;1.80;1.50;;;24.20;76.80;;;;;;5056020;28;20856;-91
2022/02/09 11:35:16;;;;;;;2.23;1.40;;;24.40;77.80;;;;;;5054224;28;20459;-91
2022/02/09 11:38:12;;;;;;;1.73;1.60;;;24.80;75.60;;;;;;5055003;28;20582;-92
2022/02/09 11:40:46;;;;;;;2.13;1.50;;;24.70;76.80;;;;;;5057627;28;20539;-92
2022/02/09 11:43:43;;;;;;;1.70;1.57;;;25.00;77.30;;;;;;5056335;28;20465;-93
2022/02/09 11:46:33;;;;;;;3.20;1.90;;;25.80;76.60;;;;;;5055863;28;20470;-91
2022/02/09 12:00:59;;;;;;;2.40;1.80;;;25.80;75.60;;;;;;5053179;28;20810;-92
2022/02/09 12:10:23;;;;;;;1.27;1.17;;;26.10;75.00;;;;;;5054928;28;20516;-91
2022/02/09 12:12:58;;;;;;;1.73;1.30;;;25.90;75.70;;;;;;5054250;28;20439;-90
2022/02/09 12:16:01;;;;;;;3.23;1.50;;;26.30;75.10;;;;;;5055449;28;20463;-91
2022/02/09 12:18:30;;;;;;;1.70;1.10;;;26.90;73.60;;;;;;5054792;28;20491;-93
2022/02/09 12:21:05;;;;;;;1.53;1.40;;;26.60;74.60;;;;;;5055223;28;20453;-92
2022/02/09 12:23:34;;;;;;;2.17;1.47;;;26.60;74.60;;;;;;5056319;28;20498;-89
2022/02/09 12:26:06;;;;;;;1.53;1.30;;;26.50;75.70;;;;;;5057276;28;20461;-91
2022/02/09 12:28:38;;;;;;;2.63;1.50;;;27.00;75.40;;;;;;5054951;28;20479;-92
2022/02/09 12:31:06;;;;;;;1.40;1.20;;;27.20;73.50;;;;;;5083582;22;20446;-70
2022/02/09 12:33:33;;;;;;;1.87;1.23;;;26.90;73.70;;;;;;5052470;28;20817;-73
2022/02/09 12:36:12;;;;;;;2.30;1.30;;;26.30;76.10;;;;;;5069816;28;20549;-72
2022/02/09 12:38:39;;;;;;;1.70;1.30;;;26.70;74.90;;;;;;5069629;28;20494;-73
2022/02/09 12:41:11;;;;;;;2.73;1.20;;;26.70;74.10;;;;;;5070304;28;20467;-72
2022/02/09 12:43:57;;;;;;;1.83;1.20;;;25.90;75.60;;;;;;5069276;28;20459;-72
2022/02/09 12:46:26;;;;;;;1.70;1.20;;;25.00;76.20;;;;;;5069706;28;20474;-72
2022/02/09 12:48:53;;;;;;;1.60;1.20;;;24.00;77.90;;;;;;5069789;28;20466;-72
2022/02/09 12:51:26;;;;;;;1.67;1.30;;;23.90;78.40;;;;;;5069833;28;20465;-73
2022/02/09 12:53:53;;;;;;;2.43;1.30;;;24.60;77.80;;;;;;5068927;28;20466;-72
2022/02/09 12:56:25;;;;;;;2.20;1.07;;;25.50;76.80;;;;;;5069892;28;20482;-72
2022/02/09 12:59:05;;;;;;;2.50;1.47;;;26.00;76.10;;;;;;5069484;28;20497;-72
2022/02/09 13:01:43;;;;;;;2.00;1.30;;;26.00;75.90;;;;;;5069639;28;20962;-72
2022/02/09 13:04:11;;;;;;;2.30;1.20;;;25.80;76.80;;;;;;5069057;28;20468;-72
2022/02/09 13:06:44;;;;;;;1.10;1.00;;;25.70;76.70;;;;;;5069528;28;20482;-72
2022/02/09 13:09:16;;;;;;;1.30;1.20;;;25.30;76.00;;;;;;5069925;28;20456;-71
2022/02/09 13:11:43;;;;;;;2.60;1.40;;;24.70;77.50;;;;;;5069863;28;20841;-72
2022/02/09 13:14:15;;;;;;;1.57;1.47;;;24.70;76.80;;;;;;5069385;28;20463;-72
2022/02/09 13:16:53;;;;;;;1.30;1.13;;;23.90;78.50;;;;;;5069359;28;20482;-71
2022/02/09 13:19:42;;;;;;;1.23;0.97;;;23.40;78.90;;;;;;5070069;28;20521;-72
2022/02/09 13:25:30;;;;;;;1.77;1.10;;;23.40;80.60;;;;;;5070039;28;20851;-71
2022/02/09 14:07:26;;;;;;;1.50;1.40;;;22.70;80.00;;;;;;5048952;28;20478;-73
2022/02/09 14:12:51;;;;;;;1.00;0.90;;;22.10;80.00;;;;;;5048366;28;20438;-72
2022/02/09 14:15:47;;;;;;;2.13;1.17;;;22.10;81.30;;;;;;5049577;28;20568;-73
2022/02/09 14:18:48;;;;;;;1.97;1.10;;;21.60;81.10;;;;;;5048365;28;20483;-72
2022/02/09 14:49:50;;;;;;;3.60;1.83;;;21.20;84.30;;;;;;5047972;28;20434;-72
2022/02/09 14:52:04;;;;;;;3.30;2.40;;;21.20;83.80;;;;;;5046383;28;20959;-73
2022/02/09 14:54:40;;;;;;;2.60;1.73;;;21.40;83.80;;;;;;5047162;28;20479;-72
2022/02/09 14:57:11;;;;;;;3.00;1.90;;;21.10;85.50;;;;;;5047441;28;20475;-72
2022/02/09 14:59:50;;;;;;;5.83;2.47;;;21.00;85.90;;;;;;5047390;28;20459;-70
2022/02/09 15:02:22;;;;;;;4.47;2.53;;;21.10;84.80;;;;;;5046405;28;20487;-73
2022/02/09 15:07:47;;;;;;;3.03;2.17;;;20.60;86.10;;;;;;5022385;28;20596;-71
2022/02/09 15:10:17;;;;;;;4.10;2.23;;;20.60;84.80;;;;;;5047394;28;20473;-72
2022/02/09 15:12:54;;;;;;;2.70;2.10;;;20.00;85.70;;;;;;5046763;28;20470;-71
2022/02/09 15:15:32;;;;;;;4.63;2.50;;;19.90;86.30;;;;;;5047898;28;21103;-72
2022/02/09 15:20:50;;;;;;;2.80;1.87;;;19.10;88.60;;;;;;5015336;28;20450;-72
2022/02/09 15:23:19;;;;;;;4.27;1.87;;;19.20;88.80;;;;;;5047023;28;20462;-73
2022/02/09 15:25:47;;;;;;;2.87;2.00;;;18.90;88.80;;;;;;5046619;28;21449;-71
2022/02/09 15:28:14;;;;;;;1.93;1.40;;;18.70;88.60;;;;;;5063210;28;20446;-74
2022/02/09 15:30:48;;;;;;;3.07;1.87;;;18.40;88.70;;;;;;5067207;28;20512;-72
2022/02/09 15:33:21;;;;;;;3.70;1.90;;;18.20;89.10;;;;;;5065817;28;20473;-72
2022/02/09 15:35:53;;;;;;;2.00;1.70;;;17.80;89.40;;;;;;5064750;28;20478;-71
2022/02/09 15:38:25;;;;;;;2.07;1.80;;;17.40;89.50;;;;;;5067455;28;20482;-73
2022/02/09 15:41:03;;;;;;;3.23;1.67;;;17.00;90.50;;;;;;5066982;28;20516;-72
2022/02/09 15:44:00;;;;;;;1.50;1.30;;;16.40;90.40;;;;;;5066489;28;20463;-72
2022/02/09 15:57:54;;;;;;;2.00;1.80;;;14.60;92.70;;;;;;5045359;28;20478;-70
2022/02/09 16:09:24;;;;;;;6.13;2.40;;;13.60;94.20;;;;;;5054364;28;20501;-94
2022/02/09 16:23:28;;;;;;;10.40;2.40;;;12.70;95.50;;;;;;5094083;28;20462;-95
2022/02/09 16:26:06;;;;;;;3.27;2.20;;;12.50;95.60;;;;;;5095126;28;20442;-96
2022/02/09 16:45:04;;;;;;;2.67;2.10;;;11.20;97.50;;;;;;5046300;28;20250;-75
2022/02/09 16:47:52;;;;;;;4.40;2.65;;;11.10;97.20;;;;;;5045509;28;20297;-74
2022/02/09 16:50:25;;;;;;;3.25;2.10;;;10.90;97.10;;;;;;5046602;28;20205;-75
2022/02/09 16:52:58;;;;;;;5.03;2.15;;;10.80;98.10;;;;;;5044717;28;20304;-75
2022/02/09 16:55:54;;;;;;;10.75;8.82;;;10.50;98.50;;;;;;5046953;28;20225;-75
2022/02/09 17:20:18;;;;;;;5.30;4.00;;;9.30;99.90;;;;;;5050613;28;20619;-74
2022/02/09 17:22:45;;;;;;;4.65;3.88;;;9.20;99.90;;;;;;5049405;28;20219;-75
2022/02/09 17:25:12;;;;;;;5.28;3.35;;;9.10;99.90;;;;;;5056110;28;20869;-74
2022/02/09 17:27:42;;;;;;;5.90;3.05;;;9.10;99.90;;;;;;5069837;28;20204;-75
2022/02/09 17:33:03;;;;;;;5.63;2.80;;;8.80;99.90;;;;;;5033759;28;20648;-75
2022/02/09 17:35:41;;;;;;;3.80;3.50;;;8.80;99.90;;;;;;5049930;28;20350;-75
2022/02/09 17:38:26;;;;;;;3.10;2.63;;;8.70;99.90;;;;;;5050091;28;20236;-75
2022/02/09 17:57:29;;;;;;;4.80;3.38;;;7.80;99.90;;;;;;5067679;28;20204;-74
2022/02/09 18:00:11;;;;;;;5.82;2.80;;;7.70;99.90;;;;;;5065900;28;20668;-74
2022/02/09 18:02:38;;;;;;;5.05;3.45;;;7.60;99.90;;;;;;5063261;28;20220;-73
2022/02/09 18:05:12;;;;;;;5.68;3.80;;;7.50;99.90;;;;;;5066837;28;20644;-74
2022/02/09 18:07:41;;;;;;;17.77;8.80;;;7.40;99.90;;;;;;5068193;28;20247;-73
2022/02/09 18:10:17;;;;;;;13.05;7.00;;;7.30;99.90;;;;;;5067378;28;20217;-74
2022/02/09 18:13:13;;;;;;;15.70;7.65;;;7.20;99.90;;;;;;5066582;28;20200;-73
2022/02/09 18:29:33;;;;;;;15.30;9.80;;;6.70;99.90;;;;;;5069754;28;20598;-75
2022/02/09 18:32:15;;;;;;;17.30;10.88;;;6.70;99.90;;;;;;5066517;28;20566;-75
2022/02/09 18:37:50;;;;;;;15.43;9.43;;;6.60;99.90;;;;;;5066804;28;20204;-75
2022/02/09 18:38:08;;;;;;;25.10;9.50;;;6.50;99.90;;;;;;5066720;28;20206;-75
2022/02/09 18:43:24;;;;;;;14.48;6.00;;;6.30;99.90;;;;;;5065367;28;20303;-75
2022/02/09 18:45:56;;;;;;;15.45;8.18;;;6.30;99.90;;;;;;5061805;28;20221;-75
2022/02/09 18:48:48;;;;;;;20.08;8.52;;;6.30;99.90;;;;;;5065650;28;20331;-75
2022/02/09 18:56:58;;;;;;;13.93;6.50;;;6.10;99.90;;;;;;5044206;28;20221;-73
2022/02/09 18:59:33;;;;;;;11.93;5.80;;;6.00;99.90;;;;;;5046631;28;20299;-74
2022/02/09 19:02:09;;;;;;;16.58;6.50;;;5.90;99.90;;;;;;5065246;28;20257;-71
2022/02/09 19:04:42;;;;;;;9.00;5.15;;;5.90;99.90;;;;;;5065079;28;20318;-72
2022/02/09 19:07:20;;;;;;;9.02;4.45;;;5.90;99.90;;;;;;5065079;28;21019;-73
2022/02/09 19:15:44;;;;;;;10.43;5.57;;;5.70;99.90;;;;;;5065606;28;21044;-73
2022/02/09 19:26:13;;;;;;;18.17;7.85;;;5.60;99.90;;;;;;5066716;28;20207;-73
2022/02/09 19:26:45;;;;;;;10.82;5.70;;;5.40;99.90;;;;;;5067245;28;20222;-73
2022/02/09 19:32:19;;;;;;;8.27;5.30;;;5.20;99.90;;;;;;5066039;28;20210;-73
2022/02/09 19:41:07;;;;;;;7.25;4.00;;;5.00;99.90;;;;;;5020928;28;20268;-73
2022/02/09 19:44:35;;;;;;;13.23;5.03;;;5.00;99.90;;;;;;5063580;28;20548;-73
2022/02/09 19:46:47;;;;;;;6.18;4.30;;;4.90;99.90;;;;;;5066555;28;20227;-73
2022/02/09 19:49:20;;;;;;;6.57;3.88;;;4.80;99.90;;;;;;5066515;28;20378;-73
2022/02/09 19:52:03;;;;;;;5.85;3.92;;;4.80;99.90;;;;;;5065636;28;20711;-73
2022/02/09 19:54:42;;;;;;;10.18;4.35;;;4.80;99.90;;;;;;5067730;28;20315;-73
2022/02/09 19:57:11;;;;;;;4.78;3.70;;;4.70;99.90;;;;;;5066394;28;20238;-73
2022/02/09 19:59:39;;;;;;;6.97;4.15;;;4.70;99.90;;;;;;5067021;28;20213;-73
2022/02/09 20:02:09;;;;;;;7.50;4.50;;;4.60;99.90;;;;;;5066233;28;20581;-72
2022/02/09 20:04:38;;;;;;;10.02;4.68;;;4.60;99.90;;;;;;5066901;28;20693;-72
2022/02/09 20:07:06;;;;;;;10.85;5.25;;;4.60;99.90;;;;;;5065942;28;20232;-73
2022/02/09 20:09:33;;;;;;;9.80;5.00;;;4.60;99.90;;;;;;5064981;28;20330;-73
2022/02/09 20:12:00;;;;;;;8.07;4.80;;;4.50;99.90;;;;;;5066024;28;20215;-72
2022/02/09 20:14:28;;;;;;;7.90;4.30;;;4.50;99.90;;;;;;5064941;28;20207;-72
2022/02/09 20:16:55;;;;;;;9.50;4.78;;;4.40;99.90;;;;;;5064985;28;20224;-73
2022/02/09 20:19:23;;;;;;;8.10;4.63;;;4.30;99.90;;;;;;5064555;28;20200;-73
2022/02/09 20:21:50;;;;;;;10.35;5.35;;;4.20;99.90;;;;;;5061035;28;20201;-73
2022/02/09 20:24:17;;;;;;;7.68;4.85;;;4.20;99.90;;;;;;5061670;28;20942;-71
2022/02/09 20:26:45;;;;;;;7.53;4.82;;;4.10;99.90;;;;;;5062470;28;20231;-73
2022/02/09 20:29:17;;;;;;;6.43;4.07;;;4.10;99.90;;;;;;5061883;28;20227;-73
2022/02/09 20:31:49;;;;;;;5.50;4.57;;;4.10;99.90;;;;;;5063248;28;20212;-73
2022/02/09 20:34:23;;;;;;;5.53;4.47;;;4.00;99.90;;;;;;5063778;28;20299;-74
2022/02/09 20:36:52;;;;;;;6.70;4.70;;;4.00;99.90;;;;;;5063829;28;20699;-74
2022/02/09 20:39:24;;;;;;;9.38;4.18;;;3.90;99.90;;;;;;5064511;28;20197;-73
2022/02/09 20:41:51;;;;;;;5.47;4.32;;;3.90;99.90;;;;;;5065761;28;20687;-73
2022/02/09 20:44:23;;;;;;;6.63;4.45;;;3.80;99.90;;;;;;5068626;28;20308;-74
2022/02/09 20:46:52;;;;;;;7.38;4.55;;;3.80;99.90;;;;;;5068819;28;20611;-72
2022/02/09 20:49:19;;;;;;;7.75;4.32;;;3.70;99.90;;;;;;5068055;28;20729;-74
2022/02/09 20:51:45;;;;;;;5.85;4.38;;;3.70;99.90;;;;;;5072333;28;20928;-73
2022/02/09 20:54:14;;;;;;;6.40;4.20;;;3.60;99.90;;;;;;5068291;28;20204;-72
2022/02/09 20:56:40;;;;;;;6.95;4.40;;;3.60;99.90;;;;;;5069061;28;20754;-74
2022/02/09 20:59:11;;;;;;;6.72;5.28;;;3.50;99.90;;;;;;5068344;28;20223;-73
2022/02/09 21:01:44;;;;;;;6.38;5.05;;;3.50;99.90;;;;;;5068222;28;20691;-73
2022/02/09 21:04:14;;;;;;;6.80;4.28;;;3.50;99.90;;;;;;5067763;28;20279;-72
2022/02/09 21:06:56;;;;;;;6.22;4.03;;;3.40;99.90;;;;;;5068605;28;20718;-72
2022/02/09 21:09:34;;;;;;;6.13;4.45;;;3.40;99.90;;;;;;5069298;28;20235;-72
2022/02/09 21:12:11;;;;;;;7.25;4.65;;;3.30;99.90;;;;;;5067939;28;20950;-72
2022/02/09 21:14:55;;;;;;;5.30;4.50;;;3.30;99.90;;;;;;5067920;28;21081;-72
2022/02/09 21:17:27;;;;;;;8.02;4.20;;;3.30;99.90;;;;;;5068946;28;20261;-71
2022/02/09 21:20:20;;;;;;;7.03;4.15;;;3.20;99.90;;;;;;5067794;28;20230;-74
2022/02/09 21:23:08;;;;;;;8.50;4.00;;;3.10;99.90;;;;;;5068548;28;20214;-74
2022/02/09 21:26:05;;;;;;;5.10;3.88;;;3.10;99.90;;;;;;5067822;28;20316;-72
2022/02/09 21:43:31;;;;;;;9.10;4.43;;;2.90;99.90;;;;;;5066789;28;20272;-72
2022/02/09 21:53:46;;;;;;;5.43;3.95;;;2.80;99.90;;;;;;5066186;28;20203;-71
2022/02/09 21:56:21;;;;;;;5.40;4.47;;;2.80;99.90;;;;;;5067599;28;20235;-72
2022/02/09 21:59:00;;;;;;;4.53;4.13;;;2.80;99.90;;;;;;5067384;28;20203;-72
2022/02/09 22:20:57;;;;;;;7.30;4.10;;;2.90;99.90;;;;;;5070048;28;20671;-72
2022/02/09 22:28:57;;;;;;;7.90;5.35;;;3.10;99.90;;;;;;5066602;28;20200;-71
2022/02/09 22:31:36;;;;;;;6.90;4.65;;;3.10;99.90;;;;;;5068349;28;20210;-72
2022/02/09 22:47:58;;;;;;;6.78;3.78;;;3.40;99.90;;;;;;5066346;28;20194;-72
2022/02/09 22:50:41;;;;;;;5.00;3.92;;;3.50;99.90;;;;;;5066254;28;20269;-72
2022/02/09 22:55:53;;;;;;;7.07;3.30;;;3.80;99.90;;;;;;5065313;28;20799;-71